createdAt,value
2022-11-01T00:02:06.872Z,10.35
2022-11-01T00:04:32.608Z,10.37
2022-11-01T00:06:58.548Z,10.37
2022-11-01T00:09:24.404Z,10.34
2022-11-01T00:11:50.102Z,10.32
2022-11-01T00:14:18.034Z,10.31
2022-11-01T00:16:43.835Z,10.28
2022-11-01T00:19:09.585Z,10.25
2022-11-01T00:21:35.403Z,10.24
2022-11-01T00:24:01.089Z,10.27
2022-11-01T00:26:26.793Z,10.30
2022-11-01T00:28:53.255Z,10.30
2022-11-01T00:31:19.955Z,10.32
2022-11-01T00:33:46.430Z,10.32
2022-11-01T00:36:13.274Z,10.31
2022-11-01T00:38:39.365Z,10.30
2022-11-01T00:41:05.876Z,10.24
2022-11-01T00:43:33.031Z,10.19
2022-11-01T00:45:59.608Z,10.14
2022-11-01T00:48:25.709Z,10.09
2022-11-01T00:50:52.002Z,10.08
2022-11-01T00:53:17.684Z,10.04
2022-11-01T00:55:43.457Z,10.03
2022-11-01T00:58:09.141Z,10.03
2022-11-01T01:00:35.533Z,10.02
2022-11-01T01:03:03.546Z,9.99
2022-11-01T01:05:29.769Z,9.97
2022-11-01T01:07:55.622Z,9.98
2022-11-01T01:10:21.639Z,9.97
2022-11-01T01:12:47.382Z,9.97
2022-11-01T01:15:13.379Z,9.95
2022-11-01T01:17:39.264Z,9.95
2022-11-01T01:20:05.699Z,9.95
2022-11-01T01:22:31.704Z,9.91
2022-11-01T01:24:57.360Z,9.89
2022-11-01T01:27:23.141Z,9.88
2022-11-01T01:29:48.800Z,9.84
2022-11-01T01:32:17.452Z,9.81
2022-11-01T01:34:43.299Z,9.80
2022-11-01T01:37:10.018Z,9.80
2022-11-01T01:39:36.011Z,9.79
2022-11-01T01:42:12.721Z,9.74
2022-11-01T01:44:50.795Z,9.72
2022-11-01T01:47:23.806Z,9.73
2022-11-01T01:52:26.512Z,9.73
2022-11-01T01:54:52.224Z,9.73
2022-11-01T01:57:18.437Z,9.73
2022-11-01T01:59:44.854Z,9.70
2022-11-01T02:02:12.074Z,9.69
2022-11-01T02:04:46.406Z,9.71
2022-11-01T02:07:12.217Z,9.70
2022-11-01T02:09:38.771Z,9.69
2022-11-01T02:12:05.235Z,9.73
2022-11-01T02:14:31.192Z,9.77
2022-11-01T02:17:08.570Z,9.78
2022-11-01T02:19:59.568Z,9.81
2022-11-01T02:22:55.783Z,9.83
2022-11-01T02:25:41.544Z,9.87
2022-11-01T02:28:26.277Z,9.88
2022-11-01T02:31:13.684Z,9.89
2022-11-01T02:33:44.657Z,9.91
2022-11-01T02:36:20.192Z,9.92
2022-11-01T02:38:50.230Z,9.93
2022-11-01T02:41:29.253Z,9.93
2022-11-01T02:44:02.337Z,9.98
2022-11-01T02:46:51.699Z,9.98
2022-11-01T02:49:20.504Z,9.99
2022-11-01T02:51:48.230Z,10.02
2022-11-01T02:54:21.278Z,10.03
2022-11-01T02:56:47.697Z,10.05
2022-11-01T02:59:24.286Z,10.05
2022-11-01T03:02:06.559Z,9.99
2022-11-01T03:04:33.596Z,9.94
2022-11-01T03:07:04.106Z,9.92
2022-11-01T03:09:32.586Z,9.90
2022-11-01T03:12:16.980Z,9.89
2022-11-01T03:14:52.225Z,9.90
2022-11-01T03:17:31.879Z,9.96
2022-11-01T03:20:05.380Z,10.00
2022-11-01T03:22:51.799Z,10.02
2022-11-01T03:25:40.144Z,10.05
2022-11-01T03:28:20.254Z,10.11
2022-11-01T03:30:51.873Z,10.15
2022-11-01T03:33:18.482Z,10.14
2022-11-01T03:35:48.206Z,10.14
2022-11-01T03:38:18.366Z,10.13
2022-11-01T03:40:49.965Z,10.13
2022-11-01T03:43:17.926Z,10.12
2022-11-01T03:45:44.101Z,10.07
2022-11-01T03:48:09.899Z,10.06
2022-11-01T03:50:35.810Z,10.07
2022-11-01T03:53:01.715Z,10.10
2022-11-01T03:55:27.735Z,10.12
2022-11-01T03:57:56.413Z,10.17
2022-11-01T04:00:24.786Z,10.18
2022-11-01T04:02:52.096Z,10.18
2022-11-01T04:05:19.064Z,10.18
2022-11-01T04:07:45.745Z,10.19
2022-11-01T04:10:12.070Z,10.20
2022-11-01T04:12:38.279Z,10.20
2022-11-01T04:15:23.553Z,10.21
2022-11-01T04:18:18.518Z,10.20
2022-11-01T04:20:44.254Z,10.20
2022-11-01T04:23:10.055Z,10.18
2022-11-01T04:25:35.834Z,10.17
2022-11-01T04:28:01.582Z,10.16
2022-11-01T04:30:28.957Z,10.16
2022-11-01T04:32:54.518Z,10.13
2022-11-01T04:35:21.787Z,10.13
2022-11-01T04:37:47.732Z,10.16
2022-11-01T04:40:14.456Z,10.19
2022-11-01T04:42:40.488Z,10.24
2022-11-01T04:45:08.236Z,10.29
2022-11-01T04:47:34.229Z,10.34
2022-11-01T04:50:00.491Z,10.39
2022-11-01T04:52:27.503Z,10.44
2022-11-01T04:54:53.179Z,10.51
2022-11-01T04:57:24.528Z,10.53
2022-11-01T04:59:54.890Z,10.57
2022-11-01T05:02:22.927Z,10.61
2022-11-01T05:04:49.882Z,10.65
2022-11-01T05:07:15.881Z,10.70
2022-11-01T05:09:42.520Z,10.74
2022-11-01T05:12:08.647Z,10.77
2022-11-01T05:14:34.491Z,10.82
2022-11-01T05:17:00.965Z,10.83
2022-11-01T05:19:26.624Z,10.83
2022-11-01T05:21:52.762Z,10.82
2022-11-01T05:24:18.475Z,10.79
2022-11-01T05:26:44.236Z,10.80
2022-11-01T05:29:24.338Z,10.79
2022-11-01T05:31:55.745Z,10.77
2022-11-01T05:34:21.457Z,10.79
2022-11-01T05:36:47.160Z,10.76
2022-11-01T05:39:12.839Z,10.74
2022-11-01T05:41:40.113Z,10.74
2022-11-01T05:44:06.028Z,10.75
2022-11-01T05:46:32.338Z,10.76
2022-11-01T05:48:58.027Z,10.77
2022-11-01T05:51:24.163Z,10.75
2022-11-01T05:53:50.321Z,10.73
2022-11-01T05:56:17.094Z,10.70
2022-11-01T05:58:42.893Z,10.72
2022-11-01T06:01:09.306Z,10.76
2022-11-01T06:03:36.953Z,10.79
2022-11-01T06:06:02.729Z,10.80
2022-11-01T06:08:29.107Z,10.82
2022-11-01T06:11:02.157Z,10.84
2022-11-01T06:13:27.935Z,10.85
2022-11-01T06:16:01.137Z,10.89
2022-11-01T06:18:26.965Z,10.89
2022-11-01T06:20:52.967Z,10.89
2022-11-01T06:23:19.115Z,10.91
2022-11-01T06:25:44.838Z,10.88
2022-11-01T06:28:10.616Z,10.87
2022-11-01T06:30:38.212Z,10.88
2022-11-01T06:33:05.905Z,10.90
2022-11-01T06:35:32.706Z,10.93
2022-11-01T06:38:06.122Z,10.93
2022-11-01T06:40:35.143Z,10.95
2022-11-01T06:43:02.631Z,10.98
2022-11-01T06:45:29.253Z,11.04
2022-11-01T06:47:55.179Z,11.10
2022-11-01T06:50:21.274Z,11.13
2022-11-01T06:52:46.949Z,11.18
2022-11-01T06:55:13.238Z,11.23
2022-11-01T06:57:39.173Z,11.32
2022-11-01T07:00:05.839Z,11.39
2022-11-01T07:02:31.617Z,11.46
2022-11-01T07:04:57.441Z,11.53
2022-11-01T07:07:23.650Z,11.60
2022-11-01T07:09:49.413Z,11.63
2022-11-01T07:12:15.062Z,11.71
2022-11-01T07:14:40.750Z,11.80
2022-11-01T07:17:06.573Z,11.85
2022-11-01T07:19:32.256Z,11.87
2022-11-01T07:21:57.928Z,11.96
2022-11-01T07:24:23.634Z,12.03
2022-11-01T07:26:49.311Z,12.07
2022-11-01T07:29:15.071Z,12.10
2022-11-01T07:31:41.003Z,12.13
2022-11-01T07:34:06.795Z,12.16
2022-11-01T07:36:32.651Z,12.24
2022-11-01T07:38:58.447Z,12.24
2022-11-01T07:41:24.181Z,12.31
2022-11-01T07:43:49.868Z,12.37
2022-11-01T07:46:15.690Z,12.47
2022-11-01T07:48:41.380Z,12.50
2022-11-01T07:51:08.902Z,12.55
2022-11-01T07:53:35.022Z,12.62
2022-11-01T07:56:01.555Z,12.70
2022-11-01T07:58:27.937Z,12.80
2022-11-01T08:00:53.644Z,12.86
2022-11-01T08:03:19.483Z,12.90
2022-11-01T08:05:46.673Z,12.92
2022-11-01T08:08:13.829Z,12.95
2022-11-01T08:10:40.110Z,13.01
2022-11-01T08:13:26.134Z,13.09
2022-11-01T08:15:52.768Z,13.17
2022-11-01T08:18:23.863Z,13.26
2022-11-01T08:20:50.372Z,13.35
2022-11-01T08:23:16.736Z,13.45
2022-11-01T08:25:42.515Z,13.58
2022-11-01T08:28:12.729Z,13.66
2022-11-01T08:30:39.989Z,13.73
2022-11-01T08:33:06.109Z,13.78
2022-11-01T08:35:33.194Z,13.79
2022-11-01T08:37:59.278Z,13.85
2022-11-01T08:40:27.596Z,13.95
2022-11-01T08:42:54.107Z,14.06
2022-11-01T08:45:20.201Z,14.17
2022-11-01T08:47:45.860Z,14.30
2022-11-01T08:50:14.135Z,14.44
2022-11-01T08:52:40.588Z,14.57
2022-11-01T08:55:07.260Z,14.72
2022-11-01T08:57:33.146Z,14.88
2022-11-01T08:59:58.905Z,15.04
2022-11-01T09:02:25.116Z,15.21
2022-11-01T09:04:50.975Z,15.36
2022-11-01T09:07:16.634Z,15.55
2022-11-01T09:09:42.389Z,15.69
2022-11-01T09:12:12.322Z,15.81
2022-11-01T09:14:40.064Z,15.93
2022-11-01T09:17:05.761Z,16.05
2022-11-01T09:19:31.521Z,16.11
2022-11-01T09:21:57.176Z,16.19
2022-11-01T09:24:23.126Z,16.26
2022-11-01T09:26:49.536Z,16.31
2022-11-01T09:29:17.588Z,16.36
2022-11-01T09:31:43.274Z,16.42
2022-11-01T09:34:11.219Z,16.48
2022-11-01T09:36:36.964Z,16.49
2022-11-01T09:39:02.693Z,16.55
2022-11-01T09:41:31.759Z,16.58
2022-11-01T09:44:00.649Z,16.65
2022-11-01T09:46:38.669Z,16.64
2022-11-01T09:49:06.002Z,16.70
2022-11-01T09:51:31.866Z,16.75
2022-11-01T09:54:00.552Z,16.82
2022-11-01T09:56:38.419Z,16.96
2022-11-01T09:59:30.946Z,17.06
2022-11-01T10:02:29.565Z,17.21
2022-11-01T10:05:18.885Z,17.29
2022-11-01T10:08:01.312Z,17.35
2022-11-01T10:10:59.312Z,17.46
2022-11-01T10:13:56.601Z,17.52
2022-11-01T10:16:41.057Z,17.62
2022-11-01T10:19:14.193Z,17.78
2022-11-01T10:21:53.597Z,17.90
2022-11-01T10:24:37.713Z,18.01
2022-11-01T10:27:25.015Z,18.03
2022-11-01T10:30:17.086Z,18.07
2022-11-01T10:33:03.097Z,18.13
2022-11-01T10:35:31.565Z,18.17
2022-11-01T10:38:19.107Z,18.22
2022-11-01T10:40:56.020Z,18.24
2022-11-01T10:43:24.274Z,18.24
2022-11-01T10:45:54.474Z,18.27
2022-11-01T10:48:26.292Z,18.36
2022-11-01T10:50:54.187Z,18.37
2022-11-01T10:53:21.214Z,18.45
2022-11-01T10:55:56.931Z,18.52
2022-11-01T10:58:37.956Z,18.61
2022-11-01T11:01:07.084Z,18.66
2022-11-01T11:03:33.525Z,18.66
2022-11-01T11:06:04.257Z,18.72
2022-11-01T11:08:31.361Z,18.67
2022-11-01T11:10:58.810Z,18.62
2022-11-01T11:13:25.949Z,18.69
2022-11-01T11:15:59.711Z,18.79
2022-11-01T11:18:31.987Z,18.94
2022-11-01T11:21:01.875Z,18.88
2022-11-01T11:23:30.213Z,18.94
2022-11-01T11:26:04.271Z,19.05
2022-11-01T11:28:34.276Z,19.22
2022-11-01T11:31:22.249Z,19.35
2022-11-01T11:33:58.081Z,19.31
2022-11-01T11:36:28.482Z,19.37
2022-11-01T11:38:54.898Z,19.37
2022-11-01T11:41:38.501Z,19.51
2022-11-01T11:44:43.726Z,19.63
2022-11-01T11:47:20.547Z,19.74
2022-11-01T11:49:48.068Z,19.88
2022-11-01T11:52:34.130Z,19.98
2022-11-01T11:55:04.065Z,19.83
2022-11-01T11:57:29.924Z,19.81
2022-11-01T11:59:59.107Z,19.78
2022-11-01T12:02:34.056Z,19.89
2022-11-01T12:05:06.168Z,19.96
2022-11-01T12:07:33.815Z,19.87
2022-11-01T12:10:02.027Z,19.86
2022-11-01T12:12:29.853Z,20.01
2022-11-01T12:14:56.640Z,19.88
2022-11-01T12:17:35.789Z,19.83
2022-11-01T12:20:24.737Z,19.84
2022-11-01T12:23:13.402Z,19.61
2022-11-01T12:25:42.261Z,19.48
2022-11-01T12:28:42.348Z,19.28
2022-11-01T12:31:17.776Z,19.16
2022-11-01T12:34:02.800Z,19.19
2022-11-01T12:36:39.932Z,19.22
2022-11-01T12:39:18.093Z,19.20
2022-11-01T12:41:57.525Z,19.13
2022-11-01T12:44:42.005Z,19.06
2022-11-01T12:47:30.458Z,19.05
2022-11-01T12:50:00.831Z,18.92
2022-11-01T12:52:39.187Z,18.84
2022-11-01T12:55:30.374Z,18.76
2022-11-01T12:57:56.325Z,18.76
2022-11-01T13:00:25.639Z,18.67
2022-11-01T13:03:04.088Z,18.50
2022-11-01T13:05:45.193Z,18.44
2022-11-01T13:08:40.930Z,18.33
2022-11-01T13:11:39.480Z,18.37
2022-11-01T13:14:28.357Z,18.30
2022-11-01T13:17:08.184Z,18.25
2022-11-01T13:19:56.447Z,18.23
2022-11-01T13:22:44.482Z,18.12
2022-11-01T13:25:23.298Z,18.02
2022-11-01T13:28:21.005Z,18.01
2022-11-01T13:31:02.472Z,17.91
2022-11-01T13:33:56.582Z,17.88
2022-11-01T13:36:30.283Z,17.86
2022-11-01T13:39:14.302Z,17.84
2022-11-01T13:41:48.380Z,17.81
2022-11-01T13:44:19.268Z,17.79
2022-11-01T13:47:07.423Z,17.89
2022-11-01T13:49:39.027Z,17.95
2022-11-01T13:52:14.804Z,17.99
2022-11-01T13:54:53.060Z,18.03
2022-11-01T13:57:24.004Z,18.07
2022-11-01T13:59:49.603Z,18.13
2022-11-01T14:02:27.640Z,18.13
2022-11-01T14:05:03.676Z,18.22
2022-11-01T14:07:33.485Z,18.11
2022-11-01T14:09:59.464Z,18.06
2022-11-01T14:12:35.171Z,18.01
2022-11-01T14:15:14.617Z,17.98
2022-11-01T14:17:55.058Z,17.88
2022-11-01T14:20:32.793Z,17.88
2022-11-01T14:23:19.373Z,17.83
2022-11-01T14:25:45.523Z,17.70
2022-11-01T14:28:17.326Z,17.65
2022-11-01T14:30:52.637Z,17.59
2022-11-01T14:33:20.251Z,17.63
2022-11-01T14:35:55.553Z,17.67
2022-11-01T14:38:45.056Z,17.71
2022-11-01T14:41:13.406Z,17.72
2022-11-01T14:43:44.404Z,17.72
2022-11-01T14:46:20.441Z,17.72
2022-11-01T14:48:59.268Z,17.76
2022-11-01T14:51:30.705Z,17.74
2022-11-01T14:54:05.906Z,17.69
2022-11-01T14:56:40.702Z,17.71
2022-11-01T14:59:18.584Z,17.75
2022-11-01T15:01:47.495Z,17.75
2022-11-01T15:04:29.389Z,17.76
2022-11-01T15:06:56.724Z,17.78
2022-11-01T15:09:29.177Z,17.80
2022-11-01T15:12:07.615Z,17.81
2022-11-01T15:14:43.261Z,17.78
2022-11-01T15:17:24.483Z,17.74
2022-11-01T15:19:52.606Z,17.69
2022-11-01T15:22:22.020Z,17.62
2022-11-01T15:24:54.476Z,17.52
2022-11-01T15:27:20.801Z,17.39
2022-11-01T15:29:47.687Z,17.25
2022-11-01T15:32:30.220Z,17.10
2022-11-01T15:35:03.147Z,16.97
2022-11-01T15:37:32.357Z,16.88
2022-11-01T15:42:34.027Z,16.52
2022-11-01T15:45:39.189Z,16.36
2022-11-01T15:48:17.361Z,16.25
2022-11-01T15:50:49.603Z,16.14
2022-11-01T15:53:20.886Z,16.04
2022-11-01T15:55:53.459Z,15.95
2022-11-01T15:58:25.865Z,15.86
2022-11-01T16:00:56.949Z,15.76
2022-11-01T16:03:49.125Z,15.67
2022-11-01T16:06:30.793Z,15.56
2022-11-01T16:09:16.684Z,15.46
2022-11-01T16:11:43.884Z,15.32
2022-11-01T16:14:21.651Z,15.20
2022-11-01T16:17:05.824Z,15.09
2022-11-01T16:19:44.572Z,15.00
2022-11-01T16:22:28.838Z,14.88
2022-11-01T16:25:13.561Z,14.79
2022-11-01T16:27:58.054Z,14.70
2022-11-01T16:30:56.992Z,14.61
2022-11-01T16:33:28.200Z,14.52
2022-11-01T16:35:56.716Z,14.44
2022-11-01T16:38:43.710Z,14.34
2022-11-01T16:41:21.719Z,14.23
2022-11-01T16:43:52.065Z,14.15
2022-11-01T16:46:18.845Z,14.05
2022-11-01T16:49:13.752Z,13.95
2022-11-01T16:51:40.101Z,13.86
2022-11-01T16:54:08.684Z,13.79
2022-11-01T16:56:40.798Z,13.73
2022-11-01T16:59:25.694Z,13.64
2022-11-01T17:01:54.319Z,13.58
2022-11-01T17:04:21.865Z,13.54
2022-11-01T17:06:48.756Z,13.50
2022-11-01T17:09:17.768Z,13.49
2022-11-01T17:11:50.535Z,13.48
2022-11-01T17:14:17.420Z,13.42
2022-11-01T17:16:45.739Z,13.37
2022-11-01T17:19:25.358Z,13.35
2022-11-01T17:21:52.187Z,13.33
2022-11-01T17:24:20.768Z,13.32
2022-11-01T17:26:48.553Z,13.29
2022-11-01T17:29:14.319Z,13.24
2022-11-01T17:31:40.196Z,13.19
2022-11-01T17:34:05.857Z,13.14
2022-11-01T17:36:31.682Z,13.08
2022-11-01T17:38:57.338Z,13.02
2022-11-01T17:41:22.994Z,12.95
2022-11-01T17:43:48.674Z,12.91
2022-11-01T17:46:18.371Z,12.89
2022-11-01T17:48:44.063Z,12.87
2022-11-01T17:51:09.738Z,12.83
2022-11-01T17:53:38.506Z,12.80
2022-11-01T17:56:05.218Z,12.79
2022-11-01T17:58:30.922Z,12.78
2022-11-01T18:00:56.632Z,12.80
2022-11-01T18:03:22.363Z,12.77
2022-11-01T18:05:48.032Z,12.72
2022-11-01T18:08:18.902Z,12.69
2022-11-01T18:11:02.019Z,12.71
2022-11-01T18:13:41.154Z,12.76
2022-11-01T18:16:27.163Z,12.81
2022-11-01T18:19:10.925Z,12.90
2022-11-01T18:21:54.209Z,12.98
2022-11-01T18:24:30.962Z,12.99
2022-11-01T18:26:57.656Z,12.98
2022-11-01T18:29:23.749Z,12.94
2022-11-01T18:32:03.284Z,12.93
2022-11-01T18:34:48.418Z,12.84
2022-11-01T18:37:20.964Z,12.77
2022-11-01T18:40:09.478Z,12.74
2022-11-01T18:42:35.470Z,12.69
2022-11-01T18:45:25.450Z,12.67
2022-11-01T18:48:01.670Z,12.70
2022-11-01T18:50:27.754Z,12.73
2022-11-01T18:53:14.504Z,12.75
2022-11-01T18:55:43.558Z,12.73
2022-11-01T18:58:25.385Z,12.67
2022-11-01T19:01:33.478Z,12.56
2022-11-01T19:04:06.462Z,12.48
2022-11-01T19:06:32.450Z,12.42
2022-11-01T19:09:08.789Z,12.39
2022-11-01T19:11:34.648Z,12.34
2022-11-01T19:14:01.727Z,12.34
2022-11-01T19:16:27.574Z,12.37
2022-11-01T19:18:53.244Z,12.41
2022-11-01T19:21:20.963Z,12.42
2022-11-01T19:23:54.731Z,12.43
2022-11-01T19:26:34.499Z,12.46
2022-11-01T19:29:07.138Z,12.47
2022-11-01T19:31:36.449Z,12.47
2022-11-01T19:34:05.098Z,12.46
2022-11-01T19:39:20.674Z,12.42
2022-11-01T19:41:47.280Z,12.35
2022-11-01T19:44:18.845Z,12.31
2022-11-01T19:46:44.635Z,12.28
2022-11-01T19:49:40.481Z,12.21
2022-11-01T19:52:08.973Z,12.14
2022-11-01T19:54:37.944Z,12.05
2022-11-01T19:57:32.170Z,11.95
2022-11-01T20:00:19.365Z,11.82
2022-11-01T20:02:46.641Z,11.79
2022-11-01T20:05:32.339Z,11.76
2022-11-01T20:08:21.840Z,11.77
2022-11-01T20:10:47.870Z,11.79
2022-11-01T20:13:13.589Z,11.78
2022-11-01T20:15:39.399Z,11.75
2022-11-01T20:18:06.029Z,11.67
2022-11-01T20:20:31.977Z,11.61
2022-11-01T20:23:12.960Z,11.55
2022-11-01T20:25:43.663Z,11.49
2022-11-01T20:28:09.371Z,11.43
2022-11-01T20:30:35.099Z,11.37
2022-11-01T20:33:01.126Z,11.32
2022-11-01T20:35:27.132Z,11.28
2022-11-01T20:37:52.872Z,11.25
2022-11-01T20:40:18.545Z,11.26
2022-11-01T20:42:44.523Z,11.27
2022-11-01T20:45:10.445Z,11.29
2022-11-01T20:47:36.140Z,11.30
2022-11-01T20:50:05.085Z,11.28
2022-11-01T20:52:46.210Z,11.24
2022-11-01T20:55:12.459Z,11.24
2022-11-01T20:57:38.407Z,11.25
2022-11-01T21:00:05.477Z,11.27
2022-11-01T21:02:32.438Z,11.28
2022-11-01T21:05:14.208Z,11.27
2022-11-01T21:07:45.095Z,11.26
2022-11-01T21:10:30.817Z,11.27
2022-11-01T21:12:59.349Z,11.25
2022-11-01T21:15:24.968Z,11.21
2022-11-01T21:18:13.657Z,11.16
2022-11-01T21:20:44.144Z,11.09
2022-11-01T21:23:31.669Z,11.04
2022-11-01T21:26:00.188Z,11.03
2022-11-01T21:28:29.642Z,10.98
2022-11-01T21:31:24.022Z,10.96
2022-11-01T21:33:53.014Z,10.91
2022-11-01T21:36:18.681Z,10.85
2022-11-01T21:38:46.927Z,10.79
2022-11-01T21:41:24.302Z,10.70
2022-11-01T21:43:50.609Z,10.66
2022-11-01T21:46:20.069Z,10.59
2022-11-01T21:48:45.832Z,10.51
2022-11-01T21:51:11.524Z,10.44
2022-11-01T21:53:37.556Z,10.36
2022-11-01T21:56:03.431Z,10.29
2022-11-01T21:58:29.089Z,10.20
2022-11-01T22:00:55.102Z,10.12
2022-11-01T22:03:20.798Z,10.11
2022-11-01T22:05:46.492Z,10.11
2022-11-01T22:08:12.274Z,10.13
2022-11-01T22:10:38.049Z,10.19
2022-11-01T22:13:06.850Z,10.23
2022-11-01T22:15:33.000Z,10.28
2022-11-01T22:17:58.747Z,10.31
2022-11-01T22:20:24.679Z,10.34
2022-11-01T22:22:50.344Z,10.37
2022-11-01T22:25:16.059Z,10.39
2022-11-01T22:27:41.947Z,10.40
2022-11-01T22:30:08.347Z,10.40
2022-11-01T22:32:35.000Z,10.38
2022-11-01T22:35:00.683Z,10.34
2022-11-01T22:37:26.561Z,10.30
2022-11-01T22:39:53.208Z,10.24
2022-11-01T22:42:19.519Z,10.13
2022-11-01T22:44:47.914Z,10.05
2022-11-01T22:47:23.705Z,9.99
2022-11-01T22:50:01.942Z,9.95
2022-11-01T22:52:36.077Z,9.89
2022-11-01T22:55:04.697Z,9.85
2022-11-01T22:57:38.404Z,9.79
2022-11-01T23:00:31.822Z,9.70
2022-11-01T23:03:19.764Z,9.66
2022-11-01T23:05:46.820Z,9.65
2022-11-01T23:08:34.484Z,9.63
2022-11-01T23:11:01.384Z,9.59
2022-11-01T23:13:49.734Z,9.53
2022-11-01T23:16:26.785Z,9.48
2022-11-01T23:18:56.774Z,9.44
2022-11-01T23:21:22.731Z,9.39
2022-11-01T23:23:48.843Z,9.31
2022-11-01T23:26:17.923Z,9.22
2022-11-01T23:28:50.407Z,9.13
2022-11-01T23:31:17.596Z,9.09
2022-11-01T23:33:45.277Z,9.05
2022-11-01T23:36:33.325Z,9.02
2022-11-01T23:39:13.827Z,9.01
2022-11-01T23:41:48.571Z,9.00
2022-11-01T23:44:19.814Z,9.00
2022-11-01T23:46:45.505Z,8.99
2022-11-01T23:49:20.012Z,9.01
2022-11-01T23:51:45.903Z,9.01
2022-11-01T23:54:41.345Z,9.01
2022-11-01T23:57:15.648Z,9.04
2022-11-01T23:59:41.430Z,9.09
